createdAt,value
2018-08-06T00:02:06.125Z,101433.45
2018-08-06T00:04:32.077Z,101426.95
2018-08-06T00:06:58.060Z,101431.27
2018-08-06T00:09:24.021Z,101426.09
2018-08-06T00:11:49.988Z,101421.93
2018-08-06T00:14:15.937Z,101424.28
2018-08-06T00:16:41.913Z,101424.95
2018-08-06T00:19:07.880Z,101421.94
2018-08-06T00:21:33.852Z,101418.77
2018-08-06T00:23:59.829Z,101415.11
2018-08-06T00:26:25.851Z,101413.63
2018-08-06T00:28:51.855Z,101415.27
2018-08-06T00:31:17.837Z,101413.97
2018-08-06T00:33:43.834Z,101406.64
2018-08-06T00:36:09.811Z,101405.63
2018-08-06T00:38:35.763Z,101404.64
2018-08-06T00:41:01.720Z,101399.97
2018-08-06T00:43:27.682Z,101391.98
2018-08-06T00:45:53.652Z,101392.14
2018-08-06T00:48:19.647Z,101389.67
2018-08-06T00:50:45.629Z,101389.98
2018-08-06T00:53:11.582Z,101390.97
2018-08-06T00:55:37.548Z,101382.82
2018-08-06T01:03:06.140Z,101377.33
2018-08-06T01:05:32.108Z,101372.19
2018-08-06T01:07:58.078Z,101370.00
2018-08-06T01:10:24.030Z,101373.17
2018-08-06T01:12:50.018Z,101370.51
2018-08-06T01:15:15.992Z,101373.02
2018-08-06T01:17:42.063Z,101373.52
2018-08-06T01:20:08.027Z,101368.00
2018-08-06T01:22:33.999Z,101365.19
2018-08-06T01:24:59.996Z,101364.35
2018-08-06T01:27:25.970Z,101358.52
2018-08-06T01:29:51.944Z,101362.04
2018-08-06T01:32:17.922Z,101363.19
2018-08-06T01:34:43.876Z,101360.36
2018-08-06T01:37:09.848Z,101357.53
2018-08-06T01:39:35.824Z,101357.70
2018-08-06T01:42:01.796Z,101350.37
2018-08-06T01:44:27.794Z,101351.89
2018-08-06T01:46:53.762Z,101347.70
2018-08-06T01:49:19.748Z,101349.89
2018-08-06T01:51:45.708Z,101350.53
2018-08-06T01:54:11.691Z,101343.55
2018-08-06T02:01:40.185Z,101336.07
2018-08-06T02:04:06.137Z,101324.94
2018-08-06T02:06:32.112Z,101333.40
2018-08-06T02:08:58.072Z,101338.41
2018-08-06T02:11:24.039Z,101329.41
2018-08-06T02:13:50.008Z,101335.09
2018-08-06T02:16:15.994Z,101326.42
2018-08-06T02:18:41.970Z,101329.59
2018-08-06T02:21:07.933Z,101324.27
2018-08-06T02:23:33.924Z,101326.08
2018-08-06T02:25:59.886Z,101321.26
2018-08-06T02:28:25.848Z,101320.59
2018-08-06T02:30:51.924Z,101315.11
2018-08-06T02:33:17.897Z,101310.25
2018-08-06T02:35:43.859Z,101309.11
2018-08-06T02:38:09.822Z,101308.80
2018-08-06T02:40:35.788Z,101304.96
2018-08-06T02:43:01.780Z,101297.28
2018-08-06T02:45:27.759Z,101299.13
2018-08-06T02:47:53.732Z,101298.11
2018-08-06T02:50:19.688Z,101299.13
2018-08-06T02:52:45.671Z,101295.13
2018-08-06T02:55:11.660Z,101297.64
2018-08-06T02:57:37.619Z,101296.11
2018-08-06T03:00:03.638Z,101292.12
2018-08-06T03:02:29.568Z,101295.13
2018-08-06T03:04:55.539Z,101297.13
2018-08-06T03:07:21.493Z,101288.13
2018-08-06T03:09:48.517Z,101282.80
2018-08-06T03:12:14.474Z,101284.80
2018-08-06T03:14:40.439Z,101286.12
2018-08-06T03:17:06.471Z,101285.30
2018-08-06T03:19:32.364Z,101285.46
2018-08-06T03:21:58.323Z,101275.67
2018-08-06T03:24:24.286Z,101269.98
2018-08-06T03:26:50.300Z,101271.98
2018-08-06T03:29:16.264Z,101278.33
2018-08-06T03:31:42.242Z,101273.83
2018-08-06T03:34:08.209Z,101280.64
2018-08-06T03:36:34.216Z,101278.33
2018-08-06T03:39:00.190Z,101274.81
2018-08-06T03:41:26.156Z,101271.48
2018-08-06T03:43:52.149Z,101269.67
2018-08-06T03:46:18.127Z,101269.33
2018-08-06T03:48:44.131Z,101267.83
2018-08-06T03:51:10.126Z,101269.67
2018-08-06T03:53:36.127Z,101264.70
2018-08-06T03:56:02.126Z,101261.84
2018-08-06T03:58:33.409Z,101258.86
2018-08-06T04:00:59.366Z,101261.02
2018-08-06T04:03:25.353Z,101261.53
2018-08-06T04:05:51.341Z,101266.34
2018-08-06T04:08:17.314Z,101261.38
2018-08-06T04:10:43.281Z,101261.53
2018-08-06T04:13:09.240Z,101264.51
2018-08-06T04:15:35.198Z,101264.19
2018-08-06T04:18:01.226Z,101262.86
2018-08-06T04:20:27.273Z,101259.84
2018-08-06T04:22:53.312Z,101263.17
2018-08-06T04:25:19.280Z,101268.53
2018-08-06T04:27:45.424Z,101261.53
2018-08-06T04:30:11.475Z,101271.52
2018-08-06T04:32:37.463Z,101273.00
2018-08-06T04:35:03.420Z,101272.37
2018-08-06T04:37:29.430Z,101265.20
2018-08-06T04:39:55.406Z,101267.02
2018-08-06T04:42:21.398Z,101268.84
2018-08-06T04:44:47.404Z,101267.17
2018-08-06T04:47:13.374Z,101269.02
2018-08-06T04:49:39.353Z,101265.88
2018-08-06T04:52:05.340Z,101266.51
2018-08-06T04:54:31.308Z,101264.19
2018-08-06T04:56:57.288Z,101267.67
2018-08-06T04:59:23.249Z,101264.86
2018-08-06T05:01:49.241Z,101263.52
2018-08-06T05:04:15.225Z,101260.20
2018-08-06T05:06:41.217Z,101259.38
2018-08-06T05:09:07.203Z,101259.02
2018-08-06T05:11:33.212Z,101261.02
2018-08-06T05:13:59.171Z,101255.70
2018-08-06T05:16:25.176Z,101257.19
2018-08-06T05:18:51.154Z,101258.36
2018-08-06T05:21:17.194Z,101255.70
2018-08-06T05:23:43.155Z,101255.54
2018-08-06T05:26:09.144Z,101255.38
2018-08-06T05:28:35.111Z,101248.38
2018-08-06T05:31:01.084Z,101242.89
2018-08-06T05:33:27.040Z,101241.91
2018-08-06T05:35:53.044Z,101245.91
2018-08-06T05:48:27.572Z,101247.74
2018-08-06T05:50:53.561Z,101244.53
2018-08-06T05:53:19.557Z,101242.53
2018-08-06T05:55:45.561Z,101246.72
2018-08-06T05:58:11.581Z,101247.03
2018-08-06T06:00:37.544Z,101250.69
2018-08-06T06:03:03.525Z,101251.55
2018-08-06T06:05:29.516Z,101251.89
2018-08-06T06:07:57.524Z,101254.20
2018-08-06T06:17:57.990Z,101252.52
2018-08-06T06:20:23.963Z,101261.17
2018-08-06T06:22:49.944Z,101259.38
2018-08-06T06:25:15.958Z,101253.34
2018-08-06T06:27:42.070Z,101248.88
2018-08-06T06:30:08.036Z,101251.04
2018-08-06T06:32:34.017Z,101253.86
2018-08-06T06:34:59.997Z,101245.20
2018-08-06T06:37:25.969Z,101241.55
2018-08-06T06:39:51.949Z,101234.23
2018-08-06T06:42:17.953Z,101235.41
2018-08-06T06:44:43.935Z,101238.86
2018-08-06T06:47:12.016Z,101237.91
2018-08-06T06:49:38.042Z,101238.70
2018-08-06T06:52:04.108Z,101240.23
2018-08-06T06:57:02.480Z,101244.03
2018-08-06T06:59:28.458Z,101234.91
2018-08-06T07:01:54.409Z,101231.38
2018-08-06T07:04:20.452Z,101235.56
2018-08-06T07:06:46.534Z,101232.58
2018-08-06T07:09:12.655Z,101234.58
2018-08-06T07:11:38.865Z,101235.20
2018-08-06T07:14:05.023Z,101234.19
2018-08-06T07:16:31.078Z,101232.55
2018-08-06T07:18:57.057Z,101234.19
2018-08-06T07:21:23.019Z,101234.34
2018-08-06T07:23:48.985Z,101233.83
2018-08-06T07:26:14.947Z,101223.53
2018-08-06T07:33:43.843Z,101220.51
2018-08-06T07:36:09.777Z,101226.00
2018-08-06T07:38:35.747Z,101219.33
2018-08-06T07:41:01.734Z,101216.50
2018-08-06T07:43:27.680Z,101207.50
2018-08-06T07:45:53.641Z,101204.88
2018-08-06T07:48:19.601Z,101201.75
2018-08-06T07:50:45.551Z,101201.71
2018-08-06T07:53:11.517Z,101201.51
2018-08-06T07:55:37.476Z,101196.83
2018-08-06T07:58:03.462Z,101193.67
2018-08-06T08:00:29.430Z,101188.58
2018-08-06T08:02:55.441Z,101184.99
2018-08-06T08:05:21.433Z,101185.45
2018-08-06T08:07:47.452Z,101184.33
2018-08-06T08:10:13.442Z,101181.67
2018-08-06T08:12:39.401Z,101175.98
2018-08-06T08:15:05.385Z,101173.98
2018-08-06T08:17:31.335Z,101167.16
2018-08-06T08:19:57.455Z,101168.29
2018-08-06T08:22:23.388Z,101163.16
2018-08-06T08:24:49.367Z,101155.71
2018-08-06T08:27:15.347Z,101161.02
2018-08-06T08:29:41.325Z,101155.41
2018-08-06T08:32:07.256Z,101165.64
2018-08-06T08:34:33.269Z,101157.19
2018-08-06T08:36:59.211Z,101157.90
2018-08-06T08:39:25.183Z,101156.35
2018-08-06T08:41:54.425Z,101148.08
2018-08-06T08:44:20.385Z,101152.00
2018-08-06T08:46:46.337Z,101146.73
2018-08-06T08:49:12.311Z,101144.02
2018-08-06T08:51:38.371Z,101139.34
2018-08-06T08:54:04.318Z,101142.02
2018-08-06T08:56:30.267Z,101143.52
2018-08-06T08:58:56.308Z,101136.36
2018-08-06T09:01:22.238Z,101128.08
2018-08-06T09:03:48.242Z,101124.47
2018-08-06T09:06:14.267Z,101126.02
2018-08-06T09:08:41.143Z,101128.41
2018-08-06T09:11:07.104Z,101118.31
2018-08-06T09:13:33.104Z,101113.01
2018-08-06T09:15:59.086Z,101112.69
2018-08-06T09:18:25.065Z,101115.51
2018-08-06T09:20:51.032Z,101111.23
2018-08-06T09:23:16.999Z,101115.21
2018-08-06T09:25:42.970Z,101121.17
2018-08-06T09:28:08.951Z,101115.21
2018-08-06T09:30:34.920Z,101103.07
2018-08-06T09:38:04.244Z,101095.95
2018-08-06T09:40:30.275Z,101095.86
2018-08-06T09:47:59.229Z,101086.47
2018-08-06T09:50:25.240Z,101081.66
2018-08-06T09:52:51.262Z,101075.64
2018-08-06T09:57:52.252Z,101067.07
2018-08-06T10:00:18.240Z,101064.72
2018-08-06T10:02:44.263Z,101059.79
2018-08-06T10:05:10.233Z,101053.27
2018-08-06T10:07:36.210Z,101048.22
2018-08-06T10:10:06.903Z,101049.27
2018-08-06T10:12:32.882Z,101049.49
2018-08-06T10:14:58.863Z,101048.98
2018-08-06T10:17:24.888Z,101046.32
2018-08-06T10:19:50.848Z,101042.09
2018-08-06T10:22:16.823Z,101039.00
2018-08-06T10:24:42.854Z,101037.13
2018-08-06T10:27:08.862Z,101039.96
2018-08-06T10:29:34.834Z,101028.17
2018-08-06T10:32:06.115Z,101029.84
2018-08-06T10:39:35.142Z,101017.84
2018-08-06T10:54:40.048Z,101001.68
2018-08-06T10:59:40.051Z,100991.53
2018-08-06T11:02:06.013Z,100986.98
2018-08-06T11:04:31.996Z,100985.66
2018-08-06T11:12:01.025Z,100982.92
2018-08-06T11:14:27.100Z,100972.22
2018-08-06T11:16:52.987Z,100965.53
2018-08-06T11:19:18.953Z,100961.73
2018-08-06T11:21:44.930Z,100963.34
2018-08-06T11:24:10.976Z,100954.25
2018-08-06T11:26:36.956Z,100950.52
2018-08-06T11:29:02.941Z,100944.51
2018-08-06T11:31:28.961Z,100942.90
2018-08-06T11:36:31.938Z,100943.69
2018-08-06T11:38:57.954Z,100944.81
2018-08-06T11:41:23.928Z,100938.02
2018-08-06T11:43:49.935Z,100936.13
2018-08-06T11:46:15.903Z,100936.68
2018-08-06T11:48:41.931Z,100929.70
2018-08-06T11:51:07.923Z,100930.91
2018-08-06T11:53:33.916Z,100923.93
2018-08-06T11:55:59.956Z,100922.39
2018-08-06T11:58:27.925Z,100918.39
2018-08-06T12:03:25.304Z,100921.98
2018-08-06T12:05:55.319Z,100917.54
2018-08-06T12:08:21.397Z,100917.06
2018-08-06T12:10:48.369Z,100913.06
2018-08-06T12:13:14.453Z,100909.58
2018-08-06T12:15:42.436Z,100912.55
2018-08-06T12:18:10.426Z,100898.37
2018-08-06T12:20:36.412Z,100909.34
2018-08-06T12:23:02.394Z,100907.15
2018-08-06T12:25:28.524Z,100904.34
2018-08-06T12:30:26.314Z,100908.47
2018-08-06T12:35:28.296Z,100902.16
2018-08-06T12:37:54.265Z,100900.39
2018-08-06T12:40:20.252Z,100885.34
2018-08-06T12:42:46.356Z,100887.36
2018-08-06T12:45:12.344Z,100888.91
2018-08-06T12:47:38.346Z,100876.39
2018-08-06T12:50:04.476Z,100866.61
2018-08-06T12:52:30.445Z,100868.55
2018-08-06T12:54:56.457Z,100871.84
2018-08-06T12:57:22.452Z,100880.36
2018-08-06T12:59:48.481Z,100876.11
2018-08-06T13:02:14.441Z,100864.22
2018-08-06T13:04:40.407Z,100867.51
2018-08-06T13:07:06.407Z,100859.80
2018-08-06T13:09:32.363Z,100855.81
2018-08-06T13:11:58.378Z,100858.95
2018-08-06T13:19:29.726Z,100851.56
2018-08-06T13:21:56.688Z,100846.77
2018-08-06T13:24:23.750Z,100840.23
2018-08-06T13:26:49.710Z,100842.70
2018-08-06T13:29:20.843Z,100843.72
2018-08-06T13:31:46.830Z,100834.66
2018-08-06T13:34:12.815Z,100828.64
2018-08-06T13:36:38.902Z,100824.94
2018-08-06T13:39:04.922Z,100816.26
2018-08-06T13:41:31.926Z,100816.44
2018-08-06T13:43:57.973Z,100814.11
2018-08-06T13:46:28.834Z,100817.46
2018-08-06T13:48:54.806Z,100812.51
2018-08-06T13:51:20.809Z,100813.33
2018-08-06T13:53:46.794Z,100814.28
2018-08-06T13:56:12.781Z,100810.75
2018-08-06T13:58:38.889Z,100806.02
2018-08-06T14:01:04.888Z,100804.86
2018-08-06T14:03:30.910Z,100797.20
2018-08-06T14:05:56.889Z,100797.38
2018-08-06T14:08:22.871Z,100793.89
2018-08-06T14:10:48.842Z,100790.67
2018-08-06T14:13:14.819Z,100788.78
2018-08-06T14:15:40.776Z,100788.44
2018-08-06T14:18:09.880Z,100784.14
2018-08-06T14:20:35.880Z,100782.16
2018-08-06T14:23:02.016Z,100782.50
2018-08-06T14:25:28.034Z,100776.01
2018-08-06T14:27:54.022Z,100782.98
2018-08-06T14:30:25.827Z,100780.00
2018-08-06T14:32:51.801Z,100773.47
2018-08-06T14:35:17.789Z,100766.63
2018-08-06T14:37:43.788Z,100764.27
2018-08-06T14:40:09.914Z,100768.14
2018-08-06T14:42:35.920Z,100763.11
2018-08-06T14:45:01.905Z,100756.78
2018-08-06T14:47:27.867Z,100753.66
2018-08-06T14:49:57.167Z,100736.84
2018-08-06T14:52:24.251Z,100737.35
2018-08-06T14:59:57.277Z,100741.09
2018-08-06T15:02:25.352Z,100738.25
2018-08-06T15:04:51.475Z,100731.71
2018-08-06T15:07:17.483Z,100730.89
2018-08-06T15:09:43.446Z,100726.95
2018-08-06T15:12:10.513Z,100724.92
2018-08-06T15:14:36.473Z,100719.50
2018-08-06T15:17:02.495Z,100717.35
2018-08-06T15:19:31.981Z,100710.17
2018-08-06T15:21:57.940Z,100709.17
2018-08-06T15:24:23.929Z,100705.23
2018-08-06T15:26:49.913Z,100707.25
2018-08-06T15:29:19.978Z,100694.83
2018-08-06T15:31:45.969Z,100691.86
2018-08-06T15:34:11.948Z,100693.11
2018-08-06T15:36:37.944Z,100689.80
2018-08-06T15:39:03.940Z,100680.59
2018-08-06T15:41:29.935Z,100685.55
2018-08-06T15:43:56.048Z,100678.46
2018-08-06T15:46:22.029Z,100671.74
2018-08-06T15:48:48.028Z,100670.02
2018-08-06T15:51:13.992Z,100670.05
2018-08-06T15:53:39.988Z,100668.48
2018-08-06T15:56:05.973Z,100666.14
2018-08-06T15:58:31.986Z,100664.80
2018-08-06T16:00:57.958Z,100662.12
2018-08-06T16:03:24.020Z,100656.48
2018-08-06T16:05:49.948Z,100655.16
2018-08-06T16:08:15.990Z,100650.34
2018-08-06T16:10:42.006Z,100644.80
2018-08-06T16:13:07.992Z,100649.08
2018-08-06T16:15:33.980Z,100642.95
2018-08-06T16:17:59.975Z,100647.61
2018-08-06T16:20:25.934Z,100638.38
2018-08-06T16:22:51.917Z,100647.03
2018-08-06T16:25:17.876Z,100640.13
2018-08-06T16:27:43.866Z,100636.67
2018-08-06T16:30:09.832Z,100636.09
2018-08-06T16:32:35.840Z,100635.07
2018-08-06T16:35:02.886Z,100632.67
2018-08-06T16:37:28.858Z,100635.85
2018-08-06T16:39:54.832Z,100635.73
2018-08-06T16:42:20.848Z,100629.62
2018-08-06T16:44:46.801Z,100629.83
2018-08-06T16:47:12.789Z,100630.70
2018-08-06T16:49:38.752Z,100623.03
2018-08-06T16:52:04.730Z,100623.52
2018-08-06T16:54:30.718Z,100622.19
2018-08-06T16:56:56.687Z,100618.19
2018-08-06T16:59:22.651Z,100611.86
2018-08-06T17:01:48.616Z,100612.38
2018-08-06T17:04:14.588Z,100616.13
2018-08-06T17:06:40.606Z,100619.22
2018-08-06T17:09:06.568Z,100612.67
2018-08-06T17:14:07.700Z,100612.41
2018-08-06T17:16:33.725Z,100607.80
2018-08-06T17:18:59.704Z,100605.38
2018-08-06T17:21:25.676Z,100607.41
2018-08-06T17:23:51.671Z,100612.50
2018-08-06T17:26:17.646Z,100612.50
2018-08-06T17:28:43.618Z,100607.04
2018-08-06T17:31:13.003Z,100609.25
2018-08-06T17:33:38.941Z,100604.67
2018-08-06T17:36:04.905Z,100610.02
2018-08-06T17:38:30.868Z,100606.19
2018-08-06T17:40:56.844Z,100612.55
2018-08-06T17:43:22.819Z,100612.25
2018-08-06T17:45:48.776Z,100610.89
2018-08-06T17:48:14.796Z,100610.25
2018-08-06T17:50:40.801Z,100606.83
2018-08-06T17:53:06.745Z,100607.16
2018-08-06T17:55:32.733Z,100602.83
2018-08-06T17:57:58.712Z,100605.19
2018-08-06T18:00:24.694Z,100608.10
2018-08-06T18:02:50.756Z,100606.13
2018-08-06T18:05:16.668Z,100605.13
2018-08-06T18:07:42.647Z,100607.28
2018-08-06T18:10:08.646Z,100606.13
2018-08-06T18:12:34.609Z,100604.86
2018-08-06T18:15:00.578Z,100605.59
2018-08-06T18:17:26.627Z,100607.34
2018-08-06T18:19:52.604Z,100601.38
2018-08-06T18:22:18.728Z,100603.73
2018-08-06T18:24:44.722Z,100601.50
2018-08-06T18:27:10.718Z,100607.22
2018-08-06T18:29:36.679Z,100605.38
2018-08-06T18:32:02.655Z,100604.86
2018-08-06T18:34:34.425Z,100618.52
2018-08-06T18:37:00.709Z,100610.02
2018-08-06T18:39:26.519Z,100612.16
2018-08-06T18:41:52.508Z,100615.34
2018-08-06T18:44:18.502Z,100621.83
2018-08-06T18:46:44.495Z,100618.12
2018-08-06T18:49:10.466Z,100618.95
2018-08-06T18:51:36.463Z,100617.61
2018-08-06T18:54:02.435Z,100616.86
2018-08-06T18:56:28.475Z,100616.16
2018-08-06T18:58:54.446Z,100622.19
2018-08-06T19:01:20.420Z,100621.77
2018-08-06T19:03:46.429Z,100616.73
2018-08-06T19:06:12.416Z,100620.95
2018-08-06T19:08:38.374Z,100621.06
2018-08-06T19:11:04.349Z,100621.06
2018-08-06T19:13:30.311Z,100623.79
2018-08-06T19:15:56.281Z,100620.31
2018-08-06T19:18:22.331Z,100621.25
2018-08-06T19:20:48.299Z,100625.38
2018-08-06T19:23:14.980Z,100632.37
2018-08-06T19:25:41.017Z,100638.19
2018-08-06T19:28:06.999Z,100634.00
2018-08-06T19:30:32.957Z,100634.91
2018-08-06T19:32:59.011Z,100638.58
2018-08-06T19:35:25.004Z,100632.85
2018-08-06T19:37:50.955Z,100634.19
2018-08-06T19:40:16.935Z,100640.16
2018-08-06T19:42:43.909Z,100640.13
2018-08-06T19:45:09.876Z,100638.91
2018-08-06T19:47:35.977Z,100643.39
2018-08-06T19:50:01.973Z,100638.45
2018-08-06T19:52:27.944Z,100634.40
2018-08-06T19:54:53.929Z,100633.01
2018-08-06T19:57:19.876Z,100636.03
2018-08-06T19:59:45.895Z,100628.73
2018-08-06T20:02:11.962Z,100630.06
2018-08-06T20:04:38.043Z,100632.85
2018-08-06T20:07:04.028Z,100632.25
2018-08-06T20:09:30.017Z,100638.44
2018-08-06T20:11:56.997Z,100636.80
2018-08-06T20:14:22.982Z,100641.63
2018-08-06T20:16:48.956Z,100632.00
2018-08-06T20:19:14.925Z,100630.16
2018-08-06T20:21:40.904Z,100635.40
2018-08-06T20:24:06.855Z,100629.58
2018-08-06T20:26:32.837Z,100631.07
2018-08-06T20:28:58.814Z,100627.40
2018-08-06T20:31:24.789Z,100624.70
2018-08-06T20:33:52.800Z,100628.81
2018-08-06T20:36:18.759Z,100641.90
2018-08-06T20:38:44.734Z,100635.72
2018-08-06T20:41:10.708Z,100642.47
2018-08-06T20:43:36.678Z,100635.80
2018-08-06T20:46:02.664Z,100639.11
2018-08-06T20:48:28.640Z,100632.88
2018-08-06T20:50:54.624Z,100636.81
2018-08-06T20:53:20.605Z,100634.08
2018-08-06T20:55:46.567Z,100641.05
2018-08-06T20:58:12.589Z,100636.36
2018-08-06T21:00:38.573Z,100635.66
2018-08-06T21:03:04.581Z,100637.44
2018-08-06T21:05:30.533Z,100641.20
2018-08-06T21:07:56.564Z,100642.26
2018-08-06T21:10:22.550Z,100644.44
2018-08-06T21:12:48.549Z,100645.05
2018-08-06T21:15:14.512Z,100647.66
2018-08-06T21:17:40.483Z,100648.56
2018-08-06T21:20:06.532Z,100641.77
2018-08-06T21:25:04.535Z,100637.90
2018-08-06T21:30:03.975Z,100639.41
2018-08-06T21:32:29.959Z,100642.20
2018-08-06T21:34:55.905Z,100647.11
2018-08-06T21:42:30.611Z,100640.80
2018-08-06T21:44:56.622Z,100643.16
2018-08-06T21:49:54.309Z,100641.56
2018-08-06T21:52:20.394Z,100642.47
2018-08-06T21:54:46.362Z,100639.72
2018-08-06T21:57:12.332Z,100644.30
2018-08-06T21:59:38.323Z,100641.81
2018-08-06T22:02:04.320Z,100641.83
2018-08-06T22:04:30.716Z,100640.94
2018-08-06T22:06:57.236Z,100639.34
2018-08-06T22:09:23.339Z,100638.86
2018-08-06T22:11:49.311Z,100638.86
2018-08-06T22:14:15.300Z,100635.86
2018-08-06T22:16:41.275Z,100639.47
2018-08-06T22:19:07.256Z,100636.80
2018-08-06T22:21:33.241Z,100638.01
2018-08-06T22:23:59.214Z,100639.47
2018-08-06T22:26:25.195Z,100633.70
2018-08-06T22:28:51.224Z,100636.77
2018-08-06T22:31:17.220Z,100635.30
2018-08-06T22:33:43.207Z,100635.61
2018-08-06T22:36:09.183Z,100632.43
2018-08-06T22:38:35.195Z,100631.30
2018-08-06T22:41:01.231Z,100628.89
2018-08-06T22:43:27.244Z,100628.55
2018-08-06T22:45:53.240Z,100622.11
2018-08-06T22:48:19.241Z,100621.20
2018-08-06T22:50:45.228Z,100618.64
2018-08-06T22:53:11.215Z,100619.56
2018-08-06T22:55:37.205Z,100617.47
2018-08-06T22:58:03.179Z,100617.59
2018-08-06T23:00:29.163Z,100611.31
2018-08-06T23:02:55.145Z,100601.27
2018-08-06T23:05:21.131Z,100605.70
2018-08-06T23:07:47.311Z,100603.65
2018-08-06T23:10:13.308Z,100596.17
2018-08-06T23:12:39.284Z,100589.27
2018-08-06T23:15:05.290Z,100592.81
2018-08-06T23:17:31.266Z,100593.91
2018-08-06T23:19:57.257Z,100578.44
2018-08-06T23:22:23.224Z,100582.13
2018-08-06T23:24:49.231Z,100580.91
2018-08-06T23:27:15.220Z,100580.41
2018-08-06T23:29:41.195Z,100582.95
2018-08-06T23:32:07.140Z,100584.22
2018-08-06T23:34:33.119Z,100578.44
2018-08-06T23:36:59.110Z,100583.13
2018-08-06T23:39:25.075Z,100582.82
2018-08-06T23:41:51.072Z,100584.33
2018-08-06T23:44:17.198Z,100576.98
2018-08-06T23:46:43.205Z,100577.61
2018-08-06T23:49:09.185Z,100583.13
2018-08-06T23:51:35.181Z,100576.46
2018-08-06T23:54:01.152Z,100574.42
2018-08-06T23:56:27.116Z,100563.25
2018-08-06T23:58:53.169Z,100572.98
